Time;durP1;ratioP1;P1;durP2;ratioP2;P2;SDS_P1;SDS_P2;PMS_P1;PMS_P2;Temp;Humidity;BMP_temperature;BMP_pressure;BME280_temperature;BME280_humidity;BME280_pressure;Samples;Min_cycle;Max_cycle;Signal;HPM_P1;HPM_P2
2023/07/25 00:00:30;;;;;;;8.50;7.43;;;;;;;17.86;74.71;97709.59;5023200;28;20037;-82
2023/07/25 00:02:56;;;;;;;8.77;7.97;;;;;;;17.83;74.52;97696.72;5027764;28;20038;-81
2023/07/25 00:05:21;;;;;;;9.07;7.38;;;;;;;17.83;74.76;97707.53;5010455;28;20033;-82
2023/07/25 00:07:47;;;;;;;8.02;7.22;;;;;;;17.85;74.73;97713.41;5005514;28;20048;-81
2023/07/25 00:10:12;;;;;;;7.53;6.57;;;;;;;17.90;73.92;97705.13;5019016;28;20102;-81
2023/07/25 00:12:38;;;;;;;8.15;6.90;;;;;;;17.81;74.24;97703.56;5006891;28;20021;-82
2023/07/25 00:15:04;;;;;;;8.75;6.85;;;;;;;17.86;74.60;97709.59;5002066;28;20036;-81
2023/07/25 00:17:30;;;;;;;7.43;6.50;;;;;;;17.93;73.84;97701.75;5025900;28;20508;-82
2023/07/25 00:19:56;;;;;;;8.73;6.93;;;;;;;17.82;73.94;97692.44;5027486;28;20034;-82
2023/07/25 00:22:21;;;;;;;9.95;7.03;;;;;;;17.80;74.57;97708.16;5009851;28;20033;-82
2023/07/25 00:24:46;;;;;;;9.15;8.05;;;;;;;17.68;74.92;97699.97;5006455;28;20086;-82
2023/07/25 00:27:12;;;;;;;8.85;8.02;;;;;;;17.72;74.44;97709.00;5024212;28;20482;-81
2023/07/25 00:29:37;;;;;;;9.40;8.43;;;;;;;17.63;74.97;97713.63;5026033;28;20029;-81
2023/07/25 00:32:03;;;;;;;9.18;7.47;;;;;;;17.76;74.83;97715.31;5042436;28;20061;-81
2023/07/25 00:34:28;;;;;;;35.25;8.43;;;;;;;17.74;75.44;97724.84;5000920;28;20038;-82
2023/07/25 00:36:54;;;;;;;12.23;7.40;;;;;;;17.88;74.84;97720.06;5040691;28;20042;-82
2023/07/25 00:39:19;;;;;;;13.85;7.90;;;;;;;17.90;74.05;97710.53;5020170;28;20152;-81
2023/07/25 00:41:45;;;;;;;8.85;7.78;;;;;;;17.84;75.16;97719.13;5015373;28;20507;-82
2023/07/25 00:44:10;;;;;;;8.30;6.47;;;;;;;17.83;74.74;97704.81;5020936;28;20021;-82
2023/07/25 00:46:35;;;;;;;11.85;6.68;;;;;;;17.86;74.77;97711.50;5022654;28;20520;-81
2023/07/25 00:49:01;;;;;;;7.90;6.78;;;;;;;17.95;74.32;97715.72;5001577;28;20518;-81
2023/07/25 00:51:30;;;;;;;8.25;6.50;;;;;;;17.76;75.41;97709.94;5017781;28;20022;-81
2023/07/25 00:53:55;;;;;;;8.25;7.50;;;;;;;17.65;75.18;97700.59;5019413;28;20033;-82
2023/07/25 00:56:21;;;;;;;7.28;6.55;;;;;;;17.78;75.34;97715.78;5022603;28;20048;-81
2023/07/25 00:58:47;;;;;;;7.93;7.13;;;;;;;17.44;75.92;97715.84;5022289;28;20037;-81
2023/07/25 01:01:12;;;;;;;8.38;7.20;;;;;;;17.75;75.78;97721.84;5010536;28;20044;-81
2023/07/25 01:03:39;;;;;;;13.27;7.32;;;;;;;17.60;75.35;97713.47;5026304;28;20041;-81
2023/07/25 01:06:09;;;;;;;13.60;8.35;;;;;;;17.50;75.58;97714.59;5028726;28;20041;-82
2023/07/25 01:08:50;;;;;;;8.43;7.13;;;;;;;17.67;75.46;97741.53;5032283;28;20485;-82
2023/07/25 01:11:16;;;;;;;6.53;5.78;;;;;;;17.59;75.69;97744.25;5025219;28;20477;-82
2023/07/25 01:13:42;;;;;;;5.57;4.68;;;;;;;17.46;76.13;97739.81;5025624;28;20488;-82
2023/07/25 01:16:10;;;;;;;8.40;5.65;;;;;;;17.42;76.21;97750.44;5009742;28;20068;-82
2023/07/25 01:18:36;;;;;;;6.00;5.25;;;;;;;17.61;75.78;97740.13;5029295;28;20029;-82
2023/07/25 01:21:03;;;;;;;9.68;5.53;;;;;;;17.17;76.97;97716.19;5009588;28;20120;-83
2023/07/25 01:23:30;;;;;;;4.78;4.10;;;;;;;17.54;75.63;97729.03;4994203;28;20036;-83
2023/07/25 01:25:55;;;;;;;4.82;4.32;;;;;;;17.07;77.05;97711.94;5026440;28;20094;-83
2023/07/25 01:28:21;;;;;;;9.05;4.85;;;;;;;17.48;76.21;97726.78;5025027;28;20037;-83
2023/07/25 01:30:47;;;;;;;5.00;4.18;;;;;;;17.48;75.90;97727.59;5024798;28;20033;-83
2023/07/25 01:33:12;;;;;;;5.25;3.65;;;;;;;17.13;77.13;97721.44;5025910;28;20428;-83
2023/07/25 01:35:38;;;;;;;5.90;3.60;;;;;;;17.55;75.83;97733.31;5019199;28;20037;-83
2023/07/25 01:38:04;;;;;;;3.42;2.97;;;;;;;17.31;75.90;97722.22;5019718;28;20033;-83
2023/07/25 01:40:29;;;;;;;5.28;4.20;;;;;;;17.36;76.19;97730.16;5021358;28;20064;-83
2023/07/25 01:42:54;;;;;;;6.78;3.83;;;;;;;17.37;76.19;97723.63;5024329;28;20033;-83
2023/07/25 01:45:20;;;;;;;5.88;3.78;;;;;;;17.50;75.75;97736.19;5023369;28;20025;-83
2023/07/25 01:47:45;;;;;;;4.78;3.42;;;;;;;17.33;76.27;97752.34;5021115;28;20044;-83
2023/07/25 01:50:10;;;;;;;4.78;3.33;;;;;;;17.50;75.53;97743.44;5023104;28;20038;-83
2023/07/25 01:52:35;;;;;;;8.73;3.55;;;;;;;17.35;76.07;97739.34;5021466;28;20030;-83
2023/07/25 01:55:01;;;;;;;5.32;3.47;;;;;;;17.50;76.15;97757.75;4983732;28;20047;-83
2023/07/25 01:57:26;;;;;;;3.35;3.05;;;;;;;17.47;75.70;97742.19;5023580;28;20028;-83
2023/07/25 01:59:52;;;;;;;5.57;3.40;;;;;;;17.17;76.51;97743.16;5023451;28;20069;-83
2023/07/25 02:02:17;;;;;;;4.43;3.40;;;;;;;16.90;78.04;97746.97;4988979;28;20385;-83
2023/07/25 02:04:42;;;;;;;3.92;2.88;;;;;;;17.02;77.72;97740.94;5009386;28;20080;-83
2023/07/25 02:07:08;;;;;;;6.75;3.90;;;;;;;16.90;78.38;97752.38;5025541;28;20112;-83
2023/07/25 02:09:33;;;;;;;8.60;5.00;;;;;;;16.69;79.31;97748.66;4992202;28;20334;-83
2023/07/25 02:12:01;;;;;;;4.82;3.72;;;;;;;16.84;78.04;97729.34;5019606;28;20042;-83
2023/07/25 02:14:26;;;;;;;4.22;3.75;;;;;;;16.68;78.94;97740.91;5020109;28;20037;-83
2023/07/25 02:16:52;;;;;;;4.85;4.35;;;;;;;16.38;80.90;97745.25;5025796;28;20512;-82
2023/07/25 02:19:18;;;;;;;5.63;3.65;;;;;;;16.75;78.77;97731.25;5031721;28;20100;-83
2023/07/25 02:21:43;;;;;;;4.35;3.72;;;;;;;16.52;79.21;97728.97;5012972;28;20053;-83
2023/07/25 02:24:08;;;;;;;8.23;4.25;;;;;;;16.70;79.05;97742.19;5027543;28;20039;-83
2023/07/25 02:26:34;;;;;;;7.65;4.43;;;;;;;15.97;81.69;97742.06;5030857;28;20263;-83
2023/07/25 02:28:59;;;;;;;5.05;4.47;;;;;;;15.96;81.45;97735.91;5010778;28;20041;-82
2023/07/25 02:31:24;;;;;;;5.13;4.63;;;;;;;16.24;80.21;97731.09;5027963;28;20029;-83
2023/07/25 02:33:50;;;;;;;6.97;4.22;;;;;;;16.60;79.10;97734.38;5028033;28;20029;-83
2023/07/25 02:36:15;;;;;;;4.38;3.40;;;;;;;16.53;79.94;97749.44;5011918;28;20032;-83
2023/07/25 02:38:40;;;;;;;7.15;3.80;;;;;;;16.30;81.09;97744.09;5025108;28;20389;-82
2023/07/25 02:41:06;;;;;;;8.32;3.80;;;;;;;15.94;81.16;97726.56;5009189;28;20452;-82
2023/07/25 02:43:31;;;;;;;4.25;3.85;;;;;;;15.99;81.42;97740.66;5010851;28;20040;-82
2023/07/25 02:45:56;;;;;;;4.53;4.00;;;;;;;16.45;79.43;97740.19;5030947;28;20486;-83
2023/07/25 02:48:22;;;;;;;5.10;3.55;;;;;;;16.14;80.98;97740.25;5024629;28;20037;-83
2023/07/25 02:50:47;;;;;;;5.00;3.15;;;;;;;16.83;78.41;97743.16;5023628;28;20033;-82
2023/07/25 02:53:12;;;;;;;3.30;2.90;;;;;;;16.70;78.52;97728.72;5023783;28;20485;-83
2023/07/25 02:55:39;;;;;;;4.88;3.30;;;;;;;16.99;77.38;97744.28;4992879;28;20029;-83
2023/07/25 02:58:04;;;;;;;3.42;3.00;;;;;;;16.98;77.24;97731.91;5024363;28;20033;-83
2023/07/25 03:00:30;;;;;;;6.50;3.03;;;;;;;17.04;77.01;97736.00;5021510;28;20495;-83
2023/07/25 03:02:55;;;;;;;7.20;3.42;;;;;;;17.05;76.78;97732.22;5028031;28;20037;-83
2023/07/25 03:05:21;;;;;;;4.75;3.22;;;;;;;17.17;76.09;97729.66;5021770;28;20523;-83
2023/07/25 03:07:46;;;;;;;5.90;2.90;;;;;;;17.33;75.88;97752.34;5019442;28;20087;-83
2023/07/25 03:10:12;;;;;;;6.50;3.00;;;;;;;17.22;75.84;97756.50;5021236;28;20133;-83
2023/07/25 03:12:37;;;;;;;4.43;2.97;;;;;;;17.04;76.26;97754.88;4989561;28;20037;-83
2023/07/25 03:15:03;;;;;;;4.22;2.90;;;;;;;16.67;77.25;97739.31;5020186;28;20065;-82
2023/07/25 03:17:30;;;;;;;5.38;2.97;;;;;;;17.06;76.91;97748.06;5018453;28;20033;-83
2023/07/25 03:19:55;;;;;;;4.07;3.00;;;;;;;17.03;76.22;97742.53;5030665;28;20451;-83
2023/07/25 03:22:21;;;;;;;2.95;2.75;;;;;;;16.64;77.81;97746.16;5028070;28;20041;-83
2023/07/25 03:24:47;;;;;;;5.65;3.15;;;;;;;16.25;79.29;97744.25;5014912;28;20402;-83
2023/07/25 03:27:13;;;;;;;4.00;3.60;;;;;;;15.70;82.05;97726.91;5026742;28;20029;-82
2023/07/25 03:29:38;;;;;;;3.33;2.92;;;;;;;16.08;80.38;97736.09;5006109;28;20036;-83
2023/07/25 03:32:04;;;;;;;3.33;2.75;;;;;;;15.79;81.38;97740.41;5021324;28;20033;-83
2023/07/25 03:34:29;;;;;;;4.60;2.42;;;;;;;15.54;82.44;97731.88;5023632;28;20110;-83
2023/07/25 03:36:55;;;;;;;4.95;3.00;;;;;;;15.77;81.32;97742.63;5020249;28;20124;-83
2023/07/25 03:39:20;;;;;;;3.88;3.20;;;;;;;15.48;83.54;97741.19;5046611;28;20037;-83
2023/07/25 03:41:45;;;;;;;3.67;3.38;;;;;;;15.49;83.24;97731.19;5022299;28;20040;-83
2023/07/25 03:44:16;;;;;;;6.75;3.42;;;;;;;15.37;83.97;97749.78;5024105;28;20089;-83
2023/07/25 03:46:42;;;;;;;7.60;3.72;;;;;;;15.25;84.41;97746.81;5018623;28;20041;-83
2023/07/25 03:49:07;;;;;;;4.40;3.63;;;;;;;14.97;85.50;97722.75;5019491;28;20485;-83
2023/07/25 03:51:33;;;;;;;6.10;3.88;;;;;;;14.96;86.08;97726.53;5005557;28;21244;-82
2023/07/25 03:53:59;;;;;;;5.50;3.40;;;;;;;15.07;85.01;97742.44;5022054;28;20068;-82
2023/07/25 03:56:24;;;;;;;4.10;3.17;;;;;;;14.93;85.45;97723.66;5015531;28;20831;-82
2023/07/25 03:58:49;;;;;;;8.20;3.67;;;;;;;15.19;84.68;97743.47;4999836;28;20030;-82
2023/07/25 04:01:15;;;;;;;11.10;4.00;;;;;;;15.22;84.58;97737.50;5019943;28;20088;-82
2023/07/25 04:03:40;;;;;;;5.68;3.13;;;;;;;15.24;84.33;97750.63;5005762;28;20687;-82
2023/07/25 04:06:05;;;;;;;6.63;3.40;;;;;;;15.18;84.23;97741.09;5022559;28;20041;-82
2023/07/25 04:08:31;;;;;;;7.35;2.90;;;;;;;15.68;83.10;97719.13;5005651;28;20029;-82
2023/07/25 04:10:56;;;;;;;4.35;2.90;;;;;;;15.69;82.22;97728.00;4990044;28;20059;-82
2023/07/25 04:13:21;;;;;;;5.35;3.83;;;;;;;15.55;82.89;97733.47;5020080;28;20060;-83
2023/07/25 04:15:47;;;;;;;10.10;3.65;;;;;;;15.70;81.66;97726.91;5011052;28;20049;-82
2023/07/25 04:18:12;;;;;;;12.35;4.43;;;;;;;16.33;79.32;97721.94;5023601;28;20079;-83
2023/07/25 04:20:37;;;;;;;4.57;2.92;;;;;;;15.99;80.41;97727.19;5007547;28;20036;-82
2023/07/25 04:23:03;;;;;;;4.07;3.60;;;;;;;16.23;79.06;97730.28;5006444;28;20560;-83
2023/07/25 04:25:28;;;;;;;7.68;3.65;;;;;;;16.20;80.69;97732.84;5020539;28;20037;-83
2023/07/25 04:27:53;;;;;;;6.53;3.53;;;;;;;15.91;81.13;97719.88;5009326;28;20040;-83
2023/07/25 04:30:19;;;;;;;6.53;3.80;;;;;;;15.30;82.94;97725.19;5020810;28;20120;-82
2023/07/25 04:32:44;;;;;;;6.43;4.35;;;;;;;15.64;81.58;97717.38;5017520;28;20045;-83
2023/07/25 04:35:10;;;;;;;6.50;2.70;;;;;;;15.93;81.10;97704.22;5011579;28;20485;-82
2023/07/25 04:37:35;;;;;;;6.65;2.90;;;;;;;16.35;79.66;97698.19;5030621;28;20117;-82
2023/07/25 04:40:01;;;;;;;6.93;3.47;;;;;;;16.78;77.77;97697.47;5029879;28;20055;-83
2023/07/25 04:42:26;;;;;;;3.58;3.05;;;;;;;16.90;76.55;97681.47;5031558;28;20048;-83
2023/07/25 04:44:51;;;;;;;7.90;3.20;;;;;;;16.80;76.70;97696.06;5016004;28;20030;-83
2023/07/25 04:47:17;;;;;;;4.30;2.63;;;;;;;16.52;78.39;97691.25;5006015;28;20048;-83
2023/07/25 04:49:42;;;;;;;7.05;3.03;;;;;;;16.92;76.67;97698.13;5032345;28;20079;-82
2023/07/25 04:52:08;;;;;;;10.18;2.85;;;;;;;16.57;78.44;97691.91;5031203;28;20477;-83
2023/07/25 04:54:33;;;;;;;3.05;2.60;;;;;;;16.81;77.61;97696.84;5011237;28;20032;-82
2023/07/25 04:56:58;;;;;;;4.13;2.72;;;;;;;16.64;78.23;97702.22;5033849;28;20034;-82
2023/07/25 04:59:24;;;;;;;5.57;3.00;;;;;;;16.87;77.18;97692.88;5013360;28;20040;-83
2023/07/25 05:01:49;;;;;;;6.05;3.00;;;;;;;16.80;77.38;97695.25;5011209;28;20037;-83
2023/07/25 05:04:14;;;;;;;5.93;3.45;;;;;;;16.93;76.70;97684.31;5011027;28;20068;-82
2023/07/25 05:06:40;;;;;;;5.00;2.67;;;;;;;16.96;76.63;97707.16;5030052;28;20378;-83
2023/07/25 05:09:05;;;;;;;5.07;2.70;;;;;;;16.85;77.02;97708.59;5028319;28;20388;-84
2023/07/25 05:11:31;;;;;;;4.55;3.30;;;;;;;16.77;76.82;97699.41;4989100;28;20358;-82
2023/07/25 05:13:57;;;;;;;7.68;3.20;;;;;;;17.06;76.58;97718.41;5025276;28;20061;-83
2023/07/25 05:16:22;;;;;;;5.47;3.53;;;;;;;16.79;77.16;97707.97;5008474;28;20064;-83
2023/07/25 05:18:48;;;;;;;5.15;3.70;;;;;;;16.81;77.53;97713.81;5027376;28;20120;-83
2023/07/25 05:21:13;;;;;;;7.43;3.35;;;;;;;16.80;77.31;97716.81;5012139;28;20456;-83
2023/07/25 05:23:38;;;;;;;16.55;3.58;;;;;;;16.78;76.76;97716.34;5023286;28;20439;-82
2023/07/25 05:26:04;;;;;;;6.18;3.38;;;;;;;16.83;77.01;97708.09;5027407;28;20025;-82
2023/07/25 05:28:29;;;;;;;8.07;4.03;;;;;;;17.07;76.11;97717.31;5015525;28;20041;-82
2023/07/25 05:30:54;;;;;;;6.63;4.03;;;;;;;16.59;77.30;97721.22;5031498;28;20069;-82
2023/07/25 05:33:20;;;;;;;10.50;4.10;;;;;;;16.30;78.26;97717.19;5025171;28;20033;-82
2023/07/25 05:35:45;;;;;;;9.65;4.25;;;;;;;16.64;77.68;97729.19;5031135;28;20033;-83
2023/07/25 05:38:10;;;;;;;4.97;3.47;;;;;;;16.68;76.68;97703.97;5033726;28;20025;-82
2023/07/25 05:40:36;;;;;;;7.65;3.28;;;;;;;16.72;77.06;97731.09;5014702;28;20509;-82
2023/07/25 05:43:03;;;;;;;10.75;4.65;;;;;;;16.62;77.42;97737.56;5027713;28;20033;-82
2023/07/25 05:45:28;;;;;;;10.43;4.78;;;;;;;16.45;77.43;97738.28;5029146;28;20025;-82
2023/07/25 05:47:53;;;;;;;13.27;4.25;;;;;;;16.86;76.20;97764.09;5031305;28;20022;-82
2023/07/25 05:50:19;;;;;;;11.02;5.90;;;;;;;16.25;79.65;97771.16;5030586;28;20029;-82
2023/07/25 05:52:44;;;;;;;8.80;5.18;;;;;;;16.48;79.04;97770.00;5030477;28;20060;-82
2023/07/25 05:55:09;;;;;;;6.88;3.70;;;;;;;16.82;77.65;97776.63;5027273;28;20091;-82
2023/07/25 05:57:35;;;;;;;9.30;4.85;;;;;;;16.86;76.81;97769.47;5017728;28;20040;-82
2023/07/25 06:00:00;;;;;;;7.57;3.60;;;;;;;17.00;76.67;97767.41;5010230;28;20120;-82
2023/07/25 06:02:26;;;;;;;5.40;3.30;;;;;;;17.18;75.57;97782.50;5040498;28;20049;-82
2023/07/25 06:04:51;;;;;;;7.28;3.25;;;;;;;17.14;75.51;97792.34;5012480;28;20034;-82
2023/07/25 06:07:16;;;;;;;5.45;3.30;;;;;;;17.28;75.56;97800.28;5012598;28;20037;-82
2023/07/25 06:09:42;;;;;;;5.30;3.28;;;;;;;17.17;75.45;97803.28;5031310;28;20025;-82
2023/07/25 06:12:08;;;;;;;3.97;3.28;;;;;;;16.90;76.27;97792.00;5027158;28;20442;-82
2023/07/25 06:14:34;;;;;;;8.13;4.20;;;;;;;16.92;76.53;97793.28;5008470;28;20039;-82
2023/07/25 06:16:59;;;;;;;4.63;3.70;;;;;;;16.81;76.58;97789.28;5029038;28;20029;-81
2023/07/25 06:19:24;;;;;;;6.18;3.28;;;;;;;17.06;75.88;97799.31;5023491;28;20180;-82
2023/07/25 06:21:50;;;;;;;8.20;3.33;;;;;;;17.05;75.69;97780.75;5027686;28;20033;-82
2023/07/25 06:24:16;;;;;;;5.70;3.60;;;;;;;17.01;75.66;97788.69;5022643;28;20091;-81
2023/07/25 06:26:41;;;;;;;6.68;3.33;;;;;;;17.10;76.08;97792.16;5023568;28;20026;-81
2023/07/25 06:29:07;;;;;;;8.45;3.85;;;;;;;16.59;76.65;97786.69;5026783;28;20030;-82
2023/07/25 06:31:32;;;;;;;5.57;3.28;;;;;;;16.99;75.88;97790.88;5017243;28;20065;-81
2023/07/25 06:33:58;;;;;;;7.50;3.47;;;;;;;17.16;75.66;97790.91;5024029;28;20055;-82
2023/07/25 06:36:24;;;;;;;23.02;4.50;;;;;;;17.28;74.66;97792.97;5023446;28;20026;-82
2023/07/25 06:38:49;;;;;;;6.13;3.88;;;;;;;17.20;74.25;97774.91;5013792;28;20041;-81
2023/07/25 06:41:15;;;;;;;8.73;4.20;;;;;;;17.13;74.21;97785.34;5013044;28;20172;-81
2023/07/25 06:43:40;;;;;;;7.00;4.20;;;;;;;17.22;74.12;97776.16;5013001;28;20041;-82
2023/07/25 06:46:05;;;;;;;9.20;3.72;;;;;;;17.24;73.79;97786.63;5031395;28;20036;-81
2023/07/25 06:48:31;;;;;;;5.20;2.97;;;;;;;17.13;74.17;97769.97;5008649;28;20116;-82
2023/07/25 06:50:56;;;;;;;6.00;3.78;;;;;;;17.31;73.80;97786.16;4985383;28;20178;-81
2023/07/25 06:53:21;;;;;;;7.10;3.60;;;;;;;17.23;74.14;97785.06;5013642;28;20068;-81
2023/07/25 06:55:47;;;;;;;7.15;3.67;;;;;;;17.32;73.55;97766.94;5023932;28;20029;-81
2023/07/25 06:58:13;;;;;;;7.10;3.63;;;;;;;17.33;73.82;97779.34;5002848;28;20029;-82
2023/07/25 07:00:39;;;;;;;5.88;3.40;;;;;;;17.30;73.49;97774.56;5020402;28;20033;-81
2023/07/25 07:03:05;;;;;;;8.52;3.78;;;;;;;17.48;73.47;97772.66;5016210;28;20034;-81
2023/07/25 07:05:34;;;;;;;6.53;3.60;;;;;;;17.53;73.46;97762.53;5024516;28;20071;-81
2023/07/25 07:08:00;;;;;;;4.43;3.38;;;;;;;17.56;72.88;97751.09;5016248;28;20049;-81
2023/07/25 07:10:26;;;;;;;10.25;3.90;;;;;;;17.60;73.20;97752.06;5023013;28;20481;-82
2023/07/25 07:12:53;;;;;;;6.40;3.95;;;;;;;17.41;73.67;97756.94;5021373;28;20086;-82
2023/07/25 07:15:23;;;;;;;9.65;4.00;;;;;;;17.48;73.71;97753.75;5001849;28;20032;-82
2023/07/25 07:17:49;;;;;;;9.95;4.13;;;;;;;17.35;73.85;97752.03;5023201;28;20412;-82
2023/07/25 07:20:14;;;;;;;8.10;3.20;;;;;;;17.51;73.58;97751.28;5013022;28;20039;-82
2023/07/25 07:22:40;;;;;;;10.45;4.45;;;;;;;17.14;74.15;97760.00;5021752;28;20037;-82
2023/07/25 07:25:06;;;;;;;9.05;4.22;;;;;;;16.71;75.12;97730.28;5026000;28;20094;-82
2023/07/25 07:27:31;;;;;;;8.70;4.10;;;;;;;17.45;73.79;97732.84;5006298;28;20036;-81
2023/07/25 07:29:57;;;;;;;5.93;3.35;;;;;;;17.62;72.90;97735.53;4990002;28;20425;-81
2023/07/25 07:32:22;;;;;;;6.63;3.50;;;;;;;17.60;73.35;97726.97;5023490;28;20036;-82
2023/07/25 07:34:47;;;;;;;7.90;3.30;;;;;;;17.61;72.69;97715.84;5005933;28;20040;-81
2023/07/25 07:37:13;;;;;;;10.00;3.95;;;;;;;17.74;71.95;97722.16;5024131;28;20116;-81
2023/07/25 07:39:39;;;;;;;7.72;4.03;;;;;;;17.87;71.46;97724.66;5005205;28;20098;-82
2023/07/25 07:42:05;;;;;;;9.07;3.53;;;;;;;17.81;71.79;97714.34;5002414;28;20057;-81
2023/07/25 07:44:30;;;;;;;8.82;3.50;;;;;;;17.85;71.60;97726.91;5003102;28;20068;-82
2023/07/25 07:46:55;;;;;;;12.40;4.50;;;;;;;17.75;70.82;97694.88;5021420;28;20041;-81
2023/07/25 07:49:21;;;;;;;5.97;3.30;;;;;;;17.95;70.72;97715.72;5016678;28;20511;-82
2023/07/25 07:51:46;;;;;;;5.25;3.80;;;;;;;17.57;71.07;97711.41;5001362;28;20685;-82
2023/07/25 07:54:12;;;;;;;7.57;3.38;;;;;;;17.97;69.98;97728.94;5006591;28;20029;-81
2023/07/25 07:56:37;;;;;;;4.30;3.58;;;;;;;18.07;70.02;97719.66;5018799;28;20143;-82
2023/07/25 07:59:03;;;;;;;5.28;3.20;;;;;;;17.98;70.08;97727.78;5024345;28;20021;-82
2023/07/25 08:01:28;;;;;;;7.63;3.50;;;;;;;17.92;70.04;97719.09;5015240;28;20021;-82
2023/07/25 08:03:54;;;;;;;6.35;3.60;;;;;;;17.62;71.65;97724.75;5004066;28;20040;-81
2023/07/25 08:06:19;;;;;;;5.80;3.58;;;;;;;18.04;69.54;97713.03;5016993;28;20045;-81
2023/07/25 08:08:45;;;;;;;5.20;3.67;;;;;;;17.96;69.64;97721.94;5023125;28;20040;-81
2023/07/25 08:11:10;;;;;;;5.13;3.97;;;;;;;18.17;68.45;97708.50;5021235;28;20026;-82
2023/07/25 08:13:36;;;;;;;5.95;3.35;;;;;;;18.22;67.87;97701.00;5025556;28;20025;-81
2023/07/25 08:16:01;;;;;;;4.25;2.90;;;;;;;18.39;68.07;97727.94;5020205;28;20045;-82
2023/07/25 08:18:26;;;;;;;5.30;2.65;;;;;;;18.31;67.95;97714.47;5022273;28;20120;-82
2023/07/25 08:20:56;;;;;;;8.05;3.13;;;;;;;18.48;67.25;97719.81;5026508;28;20033;-81
2023/07/25 08:23:22;;;;;;;4.47;2.70;;;;;;;18.43;67.11;97720.78;5042303;28;20030;-82
2023/07/25 08:25:47;;;;;;;8.25;2.63;;;;;;;18.51;67.31;97719.97;5022323;28;20091;-81
2023/07/25 08:28:13;;;;;;;6.45;3.00;;;;;;;18.56;67.25;97722.47;4981490;28;20030;-82
2023/07/25 08:30:38;;;;;;;7.53;2.90;;;;;;;18.45;67.26;97721.28;5024288;28;20036;-82
2023/07/25 08:33:03;;;;;;;3.38;2.85;;;;;;;18.40;68.01;97728.72;5002334;28;20168;-82
2023/07/25 08:35:29;;;;;;;4.10;2.83;;;;;;;18.56;66.48;97727.09;5017220;28;20035;-82
2023/07/25 08:37:54;;;;;;;5.30;2.88;;;;;;;18.47;66.83;97721.72;5010920;28;20370;-82
2023/07/25 08:40:19;;;;;;;5.50;3.08;;;;;;;18.56;67.08;97733.28;5008729;28;20458;-81
2023/07/25 08:42:49;;;;;;;5.38;2.92;;;;;;;18.56;66.63;97724.38;5022031;28;20056;-82
2023/07/25 08:45:15;;;;;;;5.97;3.05;;;;;;;18.67;66.42;97736.41;5026614;28;20033;-82
2023/07/25 08:47:41;;;;;;;5.97;3.03;;;;;;;18.58;67.86;97736.47;5020846;28;20056;-82
2023/07/25 08:50:13;;;;;;;3.15;2.80;;;;;;;18.64;66.33;97726.22;5014807;28;20041;-82
2023/07/25 08:52:40;;;;;;;4.35;2.92;;;;;;;18.62;66.39;97726.56;5015241;28;20058;-81
2023/07/25 08:55:06;;;;;;;4.65;2.75;;;;;;;18.64;66.37;97728.94;5017476;28;20068;-81
2023/07/25 08:57:32;;;;;;;3.78;2.60;;;;;;;18.46;67.04;97741.75;5014212;28;20038;-81
2023/07/25 08:59:58;;;;;;;6.10;2.80;;;;;;;18.53;67.19;97741.25;4986443;28;22032;-81
2023/07/25 09:02:25;;;;;;;5.07;2.90;;;;;;;18.56;67.16;97732.50;4998630;28;20045;-81
2023/07/25 09:04:53;;;;;;;7.93;2.63;;;;;;;18.68;66.87;97737.97;5015534;28;20117;-82
2023/07/25 09:07:19;;;;;;;10.35;2.88;;;;;;;18.76;66.27;97747.16;5020928;28;20035;-81
2023/07/25 09:09:45;;;;;;;8.70;3.55;;;;;;;18.72;67.20;97744.28;5021693;28;20037;-81
2023/07/25 09:12:10;;;;;;;7.32;3.10;;;;;;;18.72;66.28;97730.00;5014730;28;20068;-82
2023/07/25 09:14:41;;;;;;;6.72;3.10;;;;;;;18.83;65.67;97740.09;4986843;28;20064;-81
2023/07/25 09:17:07;;;;;;;4.60;2.50;;;;;;;18.86;65.62;97744.84;5027380;28;20029;-81
2023/07/25 09:19:33;;;;;;;6.38;2.80;;;;;;;19.04;64.57;97746.31;5023411;28;20556;-81
2023/07/25 09:21:58;;;;;;;3.72;2.28;;;;;;;19.14;64.23;97742.41;5029962;28;20040;-81
2023/07/25 09:24:44;;;;;;;6.35;2.35;;;;;;;19.13;62.74;97740.84;5033613;28;21961;-81
2023/07/25 09:27:16;;;;;;;7.85;3.17;;;;;;;19.37;63.18;97736.34;5029554;28;20037;-81
2023/07/25 09:29:42;;;;;;;4.97;1.85;;;;;;;19.50;63.04;97747.22;5028393;28;20030;-81
2023/07/25 09:32:27;;;;;;;5.85;2.03;;;;;;;19.66;62.53;97734.66;5025951;28;20033;-82
2023/07/25 09:35:00;;;;;;;6.80;2.67;;;;;;;19.74;62.48;97745.41;5030647;28;20047;-81
2023/07/25 09:37:27;;;;;;;6.63;2.65;;;;;;;19.75;62.66;97740.75;5026249;28;21238;-82
2023/07/25 09:39:52;;;;;;;4.50;2.28;;;;;;;19.81;62.04;97734.03;5031167;28;20377;-81
2023/07/25 09:42:25;;;;;;;3.72;2.55;;;;;;;19.86;62.48;97742.72;5034534;28;20036;-81
2023/07/25 09:44:51;;;;;;;7.03;2.72;;;;;;;19.96;61.80;97736.09;5030238;28;20021;-81
2023/07/25 09:47:24;;;;;;;5.10;2.10;;;;;;;20.13;62.33;97749.44;5025766;28;20928;-81
2023/07/25 09:49:51;;;;;;;3.58;2.25;;;;;;;20.11;61.20;97738.94;5016146;28;20030;-81
2023/07/25 09:52:17;;;;;;;4.03;2.38;;;;;;;20.10;61.33;97744.66;5037389;28;20017;-81
2023/07/25 09:54:43;;;;;;;5.85;2.67;;;;;;;20.03;60.99;97725.47;5027476;28;20611;-81
2023/07/25 09:57:09;;;;;;;4.03;2.20;;;;;;;20.06;59.99;97727.50;5026993;28;20162;-81
2023/07/25 09:59:35;;;;;;;3.60;2.33;;;;;;;20.12;60.33;97731.56;5024892;28;20037;-81
2023/07/25 10:02:01;;;;;;;4.82;2.47;;;;;;;20.22;59.53;97733.09;5026202;28;20037;-81
2023/07/25 10:04:27;;;;;;;4.55;2.10;;;;;;;20.11;59.36;97738.13;5034999;28;20381;-81
2023/07/25 10:06:53;;;;;;;5.53;2.03;;;;;;;20.07;59.45;97734.53;5028746;28;20053;-82
2023/07/25 10:09:19;;;;;;;4.32;2.10;;;;;;;20.25;60.09;97727.78;5028254;28;20034;-82
2023/07/25 10:11:46;;;;;;;4.82;2.17;;;;;;;20.49;58.76;97746.75;5024651;28;20032;-82
2023/07/25 10:14:12;;;;;;;6.00;2.10;;;;;;;20.52;59.32;97740.66;5019046;28;20025;-81
2023/07/25 10:16:38;;;;;;;2.67;2.03;;;;;;;20.31;58.29;97722.94;5028318;28;20048;-81
2023/07/25 10:19:05;;;;;;;8.77;2.78;;;;;;;19.67;57.46;97747.06;5030203;28;20029;-81
2023/07/25 10:21:49;;;;;;;4.13;2.75;;;;;;;19.79;58.76;97734.34;5022360;28;20029;-81
2023/07/25 10:24:15;;;;;;;7.47;2.45;;;;;;;19.80;58.33;97748.69;5025278;28;20454;-81
2023/07/25 10:27:09;;;;;;;8.48;2.05;;;;;;;19.87;58.82;97740.81;5026262;28;20112;-81
2023/07/25 10:29:38;;;;;;;5.15;2.25;;;;;;;19.98;58.84;97748.16;5027460;28;20516;-81
2023/07/25 10:32:04;;;;;;;4.68;2.40;;;;;;;19.91;59.27;97753.34;5025323;28;20021;-81
2023/07/25 10:34:51;;;;;;;5.75;2.45;;;;;;;19.94;59.20;97754.59;5021826;28;20029;-81
2023/07/25 10:37:30;;;;;;;8.30;2.10;;;;;;;19.89;58.91;97763.72;5016592;28;20064;-81
2023/07/25 10:40:13;;;;;;;7.13;2.25;;;;;;;19.72;57.34;97766.63;5021794;28;20110;-81
2023/07/25 10:42:47;;;;;;;4.45;2.28;;;;;;;19.78;57.91;97764.47;5020524;28;20056;-81
2023/07/25 10:45:23;;;;;;;3.45;2.00;;;;;;;19.58;57.28;97751.75;5039361;28;20054;-81
2023/07/25 10:47:49;;;;;;;7.28;2.80;;;;;;;19.81;58.95;97753.75;4998559;28;20038;-81
2023/07/25 10:50:44;;;;;;;4.15;2.10;;;;;;;19.73;59.93;97764.66;5021428;28;20501;-81
2023/07/25 10:53:20;;;;;;;3.03;2.20;;;;;;;19.80;59.65;97762.22;5014026;28;20048;-81
2023/07/25 10:56:03;;;;;;;7.40;2.58;;;;;;;19.75;59.32;97765.94;5019950;28;20021;-81
2023/07/25 10:58:37;;;;;;;3.88;1.85;;;;;;;19.68;57.99;97757.56;5027620;28;20021;-81
2023/07/25 11:01:03;;;;;;;4.05;2.17;;;;;;;19.70;58.82;97749.13;5025725;28;20033;-81
2023/07/25 11:03:31;;;;;;;5.72;2.03;;;;;;;19.69;57.86;97756.44;5039659;28;20029;-81
2023/07/25 11:06:05;;;;;;;2.95;1.75;;;;;;;19.76;58.80;97764.00;5009508;28;20036;-81
2023/07/25 11:08:35;;;;;;;3.25;1.98;;;;;;;19.63;59.03;97765.91;5023515;28;20032;-81
2023/07/25 11:11:13;;;;;;;2.78;2.22;;;;;;;19.64;58.99;97761.25;5024054;28;20112;-81
2023/07/25 11:13:40;;;;;;;4.13;2.40;;;;;;;19.57;58.57;97761.78;4999492;28;20068;-81
2023/07/25 11:16:08;;;;;;;4.60;2.38;;;;;;;19.53;57.59;97765.53;5024627;28;20031;-80
2023/07/25 11:18:37;;;;;;;3.03;2.05;;;;;;;19.48;57.44;97758.41;5024490;28;20034;-81
2023/07/25 11:21:05;;;;;;;4.43;2.35;;;;;;;19.31;58.06;97753.88;5032730;28;20033;-81
2023/07/25 11:23:30;;;;;;;7.20;2.45;;;;;;;19.33;57.71;97748.94;5008133;28;20497;-81
2023/07/25 11:25:58;;;;;;;3.75;2.28;;;;;;;19.47;57.76;97756.81;5027358;28;20037;-82
2023/07/25 11:28:28;;;;;;;4.40;2.70;;;;;;;19.36;57.90;97759.13;5022773;28;20057;-81